Terminal Aerodrome Forecast
Issued by NWS Wilmington, OH

Home | Current Version | Previous Version | Text Only | Print | Product List | Glossary On
Versions: 1 2 3 4 5 6 7 8 9 10 11 12 13 14 15 16 17 18 19 20 21 22 23 24 25 26 27 28
000
FTUS41 KILN 190830 AAB
TAFCVG
TAF AMD
KCVG 190830Z 1909/2012 20009KT P6SM VCSH OVC015
     FM191100 19011KT 4SM -SHRA OVC008 WS020/21040KT
     FM191300 19011KT P6SM VCSH OVC009
     FM191500 20012G21KT P6SM OVC012
     FM191900 21013G23KT P6SM SCT035 BKN070
     FM200700 20011KT P6SM BKN070 WS020/21040KT=

USA.gov is the U.S. government's official web portal to all federal, state and local government web resources and services.